createdAt,value
2023-09-17T00:02:23.545Z,17.73
2023-09-17T00:05:26.146Z,17.72
2023-09-17T00:08:28.402Z,17.75
2023-09-17T00:11:30.491Z,17.75
2023-09-17T00:14:32.561Z,17.76
2023-09-17T00:17:34.660Z,17.83
2023-09-17T00:20:36.564Z,17.98
2023-09-17T00:23:38.451Z,17.87
2023-09-17T00:26:40.455Z,17.97
2023-09-17T00:29:42.344Z,17.88
2023-09-17T00:32:44.911Z,17.99
2023-09-17T00:35:46.759Z,17.94
2023-09-17T00:38:48.556Z,17.94
2023-09-17T00:41:50.455Z,17.94
2023-09-17T00:44:52.389Z,17.99
2023-09-17T00:47:55.802Z,17.84
2023-09-17T00:50:57.866Z,17.80
2023-09-17T00:54:00.434Z,17.62
2023-09-17T00:57:04.153Z,17.44
2023-09-17T01:00:10.991Z,17.52
2023-09-17T01:03:13.876Z,17.55
2023-09-17T01:06:16.062Z,17.60
2023-09-17T01:09:19.454Z,17.56
2023-09-17T01:12:21.886Z,17.58
2023-09-17T01:15:24.291Z,17.47
2023-09-17T01:18:28.867Z,17.44
2023-09-17T01:21:37.379Z,17.38
2023-09-17T01:24:51.448Z,17.42
2023-09-17T01:27:53.444Z,17.48
2023-09-17T01:30:55.435Z,17.44
2023-09-17T01:33:57.631Z,17.43
2023-09-17T01:37:03.834Z,17.47
2023-09-17T01:40:15.203Z,17.47
2023-09-17T01:43:21.582Z,17.42
2023-09-17T01:46:24.236Z,17.42
2023-09-17T01:49:26.968Z,17.33
2023-09-17T01:52:33.745Z,17.36
2023-09-17T01:55:37.012Z,17.44
2023-09-17T01:58:39.475Z,17.48
2023-09-17T02:01:43.488Z,17.54
2023-09-17T02:04:45.430Z,17.61
2023-09-17T02:07:48.267Z,17.66
2023-09-17T02:10:50.178Z,17.70
2023-09-17T02:13:52.570Z,17.76
2023-09-17T02:16:55.810Z,17.84
2023-09-17T02:19:57.878Z,18.10
2023-09-17T02:22:59.768Z,18.22
2023-09-17T02:26:01.786Z,18.08
2023-09-17T02:29:05.226Z,17.71
2023-09-17T02:32:07.514Z,17.77
2023-09-17T02:35:09.746Z,17.76
2023-09-17T02:38:11.877Z,17.84
2023-09-17T02:41:13.762Z,17.62
2023-09-17T02:44:15.645Z,17.47
2023-09-17T02:47:17.685Z,17.31
2023-09-17T02:50:20.972Z,17.19
2023-09-17T02:53:23.021Z,17.27
2023-09-17T02:56:26.056Z,17.24
2023-09-17T02:59:28.094Z,17.19
2023-09-17T03:02:30.172Z,17.27
2023-09-17T03:05:32.119Z,17.29
2023-09-17T03:08:34.541Z,17.29
2023-09-17T03:11:36.520Z,17.25
2023-09-17T03:14:40.056Z,17.24
2023-09-17T03:17:45.567Z,17.19
2023-09-17T03:20:50.416Z,17.09
2023-09-17T03:23:52.427Z,17.12
2023-09-17T03:26:54.986Z,17.22
2023-09-17T03:29:57.438Z,17.26
2023-09-17T03:33:04.877Z,17.27
2023-09-17T03:36:14.085Z,17.29
2023-09-17T03:39:16.254Z,17.27
2023-09-17T03:42:18.156Z,17.21
2023-09-17T03:45:20.128Z,17.13
2023-09-17T03:48:22.905Z,17.13
2023-09-17T03:51:25.140Z,17.07
2023-09-17T03:54:28.117Z,17.02
2023-09-17T03:57:30.431Z,17.01
2023-09-17T04:00:32.924Z,17.16
2023-09-17T04:03:37.891Z,17.32
2023-09-17T04:06:40.039Z,17.29
2023-09-17T04:09:44.044Z,17.17
2023-09-17T04:12:46.363Z,17.10
2023-09-17T04:15:50.126Z,16.91
2023-09-17T04:18:52.027Z,16.79
2023-09-17T04:21:53.926Z,16.69
2023-09-17T04:24:56.645Z,16.67
2023-09-17T04:27:58.743Z,16.66
2023-09-17T04:31:00.658Z,16.50
2023-09-17T04:34:02.618Z,16.49
2023-09-17T04:37:05.315Z,16.47
2023-09-17T04:40:12.692Z,16.56
2023-09-17T04:43:16.498Z,16.70
2023-09-17T04:46:18.534Z,16.68
2023-09-17T04:49:26.131Z,16.59
2023-09-17T04:52:28.109Z,16.45
2023-09-17T04:55:30.213Z,16.55
2023-09-17T04:58:32.093Z,16.87
2023-09-17T05:01:36.476Z,17.04
2023-09-17T05:04:38.559Z,17.06
2023-09-17T05:07:43.524Z,16.99
2023-09-17T05:10:46.086Z,16.99
2023-09-17T05:13:48.309Z,16.97
2023-09-17T05:16:50.371Z,16.96
2023-09-17T05:19:52.534Z,16.83
2023-09-17T05:22:54.597Z,16.81
2023-09-17T05:25:56.594Z,16.85
2023-09-17T05:29:02.044Z,16.90
2023-09-17T05:32:04.833Z,17.07
2023-09-17T05:35:08.529Z,17.28
2023-09-17T05:38:10.547Z,17.42
2023-09-17T05:41:13.293Z,17.51
2023-09-17T05:44:15.286Z,17.64
2023-09-17T05:47:17.577Z,17.77
2023-09-17T05:50:19.932Z,17.87
2023-09-17T05:53:22.285Z,18.01
2023-09-17T05:56:24.179Z,17.91
2023-09-17T05:59:26.658Z,17.80
2023-09-17T06:02:28.605Z,17.76
2023-09-17T06:05:30.534Z,17.88
2023-09-17T06:08:32.624Z,17.78
2023-09-17T06:11:34.873Z,17.58
2023-09-17T06:14:36.882Z,17.46
2023-09-17T06:17:39.265Z,17.40
2023-09-17T06:20:41.338Z,17.45
2023-09-17T06:23:43.398Z,17.40
2023-09-17T06:26:45.322Z,17.35
2023-09-17T06:29:47.501Z,17.37
2023-09-17T06:32:50.018Z,17.28
2023-09-17T06:35:52.056Z,17.34
2023-09-17T06:38:53.904Z,17.40
2023-09-17T06:41:55.963Z,17.41
2023-09-17T06:44:57.860Z,17.45
2023-09-17T06:47:59.985Z,17.43
2023-09-17T06:51:02.853Z,17.58
2023-09-17T06:54:04.884Z,17.78
2023-09-17T06:57:06.708Z,18.14
2023-09-17T07:00:09.021Z,18.35
2023-09-17T07:03:11.023Z,18.48
2023-09-17T07:06:12.933Z,18.89
2023-09-17T07:09:14.800Z,18.76
2023-09-17T07:12:17.635Z,18.68
2023-09-17T07:15:21.377Z,18.58
2023-09-17T07:18:23.809Z,18.83
2023-09-17T07:21:25.817Z,19.22
2023-09-17T07:24:27.664Z,19.09
2023-09-17T07:27:30.834Z,19.24
2023-09-17T07:30:36.015Z,19.29
2023-09-17T07:33:40.357Z,19.35
2023-09-17T07:36:42.394Z,19.85
2023-09-17T07:39:46.423Z,20.14
2023-09-17T07:42:48.850Z,20.23
2023-09-17T07:45:50.739Z,20.56
2023-09-17T07:48:52.780Z,20.34
2023-09-17T07:51:54.800Z,20.38
2023-09-17T07:54:56.631Z,20.08
2023-09-17T07:57:58.641Z,20.03
2023-09-17T08:01:00.593Z,20.02
2023-09-17T08:04:02.597Z,20.52
2023-09-17T08:07:05.599Z,20.68
2023-09-17T08:10:08.041Z,20.79
2023-09-17T08:13:10.269Z,20.69
2023-09-17T08:16:12.203Z,20.57
2023-09-17T08:19:14.195Z,20.93
2023-09-17T08:22:16.739Z,21.33
2023-09-17T08:25:19.653Z,21.48
2023-09-17T08:28:24.007Z,21.66
2023-09-17T08:31:26.846Z,21.69
2023-09-17T08:34:28.890Z,21.79
2023-09-17T08:37:31.215Z,21.64
2023-09-17T08:40:35.945Z,21.60
2023-09-17T08:43:40.367Z,21.93
2023-09-17T08:46:44.228Z,21.88
2023-09-17T08:49:46.177Z,21.70
2023-09-17T08:52:55.745Z,21.85
2023-09-17T08:56:01.258Z,21.68
2023-09-17T08:59:10.374Z,21.75
2023-09-17T09:02:21.570Z,21.99
2023-09-17T09:05:26.636Z,22.23
2023-09-17T09:08:30.081Z,22.06
2023-09-17T09:11:35.914Z,21.79
2023-09-17T09:14:37.851Z,21.64
2023-09-17T09:17:40.448Z,21.82
2023-09-17T09:20:43.521Z,22.29
2023-09-17T09:23:45.694Z,22.21
2023-09-17T09:26:48.454Z,22.47
2023-09-17T09:29:50.384Z,22.53
2023-09-17T09:32:52.727Z,22.30
2023-09-17T09:35:56.125Z,21.93
2023-09-17T09:38:58.370Z,21.97
2023-09-17T09:42:00.871Z,21.83
2023-09-17T09:45:04.279Z,22.16
2023-09-17T09:48:14.348Z,22.16
2023-09-17T09:51:19.834Z,22.50
2023-09-17T09:54:21.699Z,22.52
2023-09-17T09:57:26.648Z,22.66
2023-09-17T10:00:30.391Z,22.82
2023-09-17T10:03:33.078Z,23.23
2023-09-17T10:06:37.381Z,23.50
2023-09-17T10:09:40.131Z,23.51
2023-09-17T10:12:42.179Z,23.58
2023-09-17T10:15:45.035Z,23.54
2023-09-17T10:18:47.763Z,23.65
2023-09-17T10:21:51.109Z,23.96
2023-09-17T10:24:53.610Z,24.03
2023-09-17T10:27:56.736Z,24.15
2023-09-17T10:31:00.421Z,24.38
2023-09-17T10:34:04.888Z,24.34
2023-09-17T10:37:08.003Z,24.79
2023-09-17T10:40:11.264Z,24.61
2023-09-17T10:43:13.408Z,24.90
2023-09-17T10:46:17.110Z,24.75
2023-09-17T10:49:20.011Z,24.48
2023-09-17T10:52:22.855Z,24.63
2023-09-17T10:55:29.142Z,24.71
2023-09-17T10:58:38.336Z,24.35
2023-09-17T11:01:43.724Z,24.59
2023-09-17T11:04:47.133Z,24.35
2023-09-17T11:07:54.114Z,24.40
2023-09-17T11:10:56.471Z,24.28
2023-09-17T11:13:58.815Z,23.72
2023-09-17T11:17:02.085Z,23.69
2023-09-17T11:20:13.862Z,23.55
2023-09-17T11:23:16.318Z,23.62
2023-09-17T11:26:26.215Z,23.59
2023-09-17T11:29:45.258Z,23.63
2023-09-17T11:32:54.677Z,23.56
2023-09-17T11:35:57.935Z,23.88
2023-09-17T11:39:05.010Z,24.24
2023-09-17T11:42:14.672Z,24.55
2023-09-17T11:45:17.039Z,25.01
2023-09-17T11:48:19.046Z,25.37
2023-09-17T11:51:22.400Z,25.32
2023-09-17T11:54:31.843Z,25.49
2023-09-17T11:57:35.124Z,25.27
2023-09-17T12:00:37.112Z,25.09
2023-09-17T12:03:39.136Z,24.90
2023-09-17T12:06:47.414Z,25.34
2023-09-17T12:09:58.771Z,25.44
2023-09-17T12:13:00.833Z,25.60
2023-09-17T12:16:02.743Z,25.25
2023-09-17T12:19:17.539Z,24.89
2023-09-17T12:22:20.934Z,24.82
2023-09-17T12:25:22.802Z,24.76
2023-09-17T12:28:28.984Z,24.73
2023-09-17T12:31:31.520Z,24.93
2023-09-17T12:34:37.467Z,25.20
2023-09-17T12:37:39.854Z,25.07
2023-09-17T12:40:42.494Z,24.86
2023-09-17T12:43:44.609Z,24.69
2023-09-17T12:46:47.686Z,24.57
2023-09-17T12:49:49.703Z,24.65
2023-09-17T12:52:52.312Z,24.56
2023-09-17T12:55:58.553Z,24.59
2023-09-17T12:59:02.140Z,24.68
2023-09-17T13:02:05.585Z,25.20
2023-09-17T13:05:09.254Z,25.48
2023-09-17T13:08:11.361Z,25.48
2023-09-17T13:11:13.461Z,25.72
2023-09-17T13:14:15.506Z,25.53
2023-09-17T13:17:18.395Z,25.49
2023-09-17T13:20:21.002Z,25.68
2023-09-17T13:23:23.681Z,25.57
2023-09-17T13:26:27.333Z,25.49
2023-09-17T13:29:43.170Z,25.65
2023-09-17T13:32:48.609Z,25.51
2023-09-17T13:35:54.755Z,25.25
2023-09-17T13:38:57.565Z,25.21
2023-09-17T13:41:59.596Z,24.87
2023-09-17T13:45:01.503Z,24.80
2023-09-17T13:48:03.586Z,24.68
2023-09-17T13:51:05.737Z,24.57
2023-09-17T13:54:07.712Z,24.74
2023-09-17T13:57:09.750Z,24.81
2023-09-17T14:00:15.293Z,24.75
2023-09-17T14:03:17.810Z,24.71
2023-09-17T14:06:19.858Z,24.53
2023-09-17T14:09:22.301Z,24.48
2023-09-17T14:12:26.454Z,24.59
2023-09-17T14:15:28.615Z,24.65
2023-09-17T14:18:30.533Z,24.90
2023-09-17T14:21:38.617Z,24.92
2023-09-17T14:24:40.593Z,25.17
2023-09-17T14:27:42.589Z,25.29
2023-09-17T14:30:45.027Z,25.28
2023-09-17T14:33:46.900Z,25.22
2023-09-17T14:36:49.021Z,25.26
2023-09-17T14:39:52.218Z,25.39
2023-09-17T14:42:54.149Z,25.13
2023-09-17T14:45:56.171Z,25.00
2023-09-17T14:48:58.012Z,25.01
2023-09-17T14:51:59.903Z,24.95
2023-09-17T14:55:05.378Z,24.80
2023-09-17T14:58:07.426Z,24.61
2023-09-17T15:01:12.036Z,24.56
2023-09-17T15:04:21.301Z,24.45
2023-09-17T15:07:23.636Z,24.30
2023-09-17T15:10:25.633Z,24.27
2023-09-17T15:13:27.445Z,24.17
2023-09-17T15:16:29.331Z,24.14
2023-09-17T15:19:31.431Z,24.28
2023-09-17T15:22:34.745Z,24.37
2023-09-17T15:25:36.849Z,24.40
2023-09-17T15:28:39.023Z,24.40
2023-09-17T15:31:41.396Z,24.38
2023-09-17T15:34:44.364Z,24.38
2023-09-17T15:37:47.756Z,24.29
2023-09-17T15:40:53.159Z,24.25
2023-09-17T15:43:55.617Z,24.23
2023-09-17T15:46:59.245Z,24.14
2023-09-17T15:50:01.421Z,24.07
2023-09-17T15:53:03.580Z,23.93
2023-09-17T15:56:05.736Z,23.87
2023-09-17T15:59:07.819Z,23.85
2023-09-17T16:02:10.205Z,23.74
2023-09-17T16:05:12.771Z,23.64
2023-09-17T16:08:15.243Z,23.51
2023-09-17T16:11:17.235Z,23.39
2023-09-17T16:14:19.241Z,23.30
2023-09-17T16:17:21.198Z,23.23
2023-09-17T16:20:23.909Z,23.18
2023-09-17T16:23:25.892Z,23.07
2023-09-17T16:26:27.756Z,22.98
2023-09-17T16:29:29.676Z,22.89
2023-09-17T16:32:32.673Z,22.79
2023-09-17T16:35:34.661Z,22.67
2023-09-17T16:38:36.571Z,22.57
2023-09-17T16:41:38.575Z,22.49
2023-09-17T16:44:40.520Z,22.45
2023-09-17T16:47:42.592Z,22.34
2023-09-17T16:50:44.879Z,22.23
2023-09-17T16:53:46.947Z,22.14
2023-09-17T16:56:48.952Z,22.01
2023-09-17T16:59:50.852Z,21.96
2023-09-17T17:02:53.213Z,21.91
2023-09-17T17:05:55.580Z,21.94
2023-09-17T17:08:57.618Z,21.90
2023-09-17T17:11:59.665Z,21.76
2023-09-17T17:15:01.607Z,21.66
2023-09-17T17:18:03.696Z,21.56
2023-09-17T17:21:05.651Z,21.49
2023-09-17T17:24:08.383Z,21.42
2023-09-17T17:27:10.276Z,21.42
2023-09-17T17:30:12.765Z,21.38
2023-09-17T17:33:14.733Z,21.29
2023-09-17T17:36:17.002Z,21.22
2023-09-17T17:39:19.111Z,21.16
2023-09-17T17:42:20.994Z,21.10
2023-09-17T17:45:23.820Z,21.06
2023-09-17T17:48:27.354Z,21.04
2023-09-17T17:51:29.578Z,21.02
2023-09-17T17:54:31.781Z,20.95
2023-09-17T17:57:33.815Z,20.92
2023-09-17T18:00:35.701Z,20.83
2023-09-17T18:03:38.979Z,20.73
2023-09-17T18:06:41.047Z,20.66
2023-09-17T18:09:43.590Z,20.61
2023-09-17T18:12:45.714Z,20.60
2023-09-17T18:15:47.921Z,20.57
2023-09-17T18:18:50.092Z,20.59
2023-09-17T18:21:52.382Z,20.57
2023-09-17T18:24:54.309Z,20.58
2023-09-17T18:27:56.493Z,20.56
2023-09-17T18:30:58.810Z,20.56
2023-09-17T18:34:00.821Z,20.54
2023-09-17T18:37:03.758Z,20.52
2023-09-17T18:40:06.598Z,20.51
2023-09-17T18:43:08.634Z,20.52
2023-09-17T18:46:10.988Z,20.51
2023-09-17T18:49:18.364Z,20.46
2023-09-17T18:52:20.481Z,20.38
2023-09-17T18:55:22.622Z,20.27
2023-09-17T18:58:24.871Z,20.22
2023-09-17T19:01:27.183Z,20.14
2023-09-17T19:04:30.473Z,20.07
2023-09-17T19:07:33.354Z,20.01
2023-09-17T19:10:36.364Z,19.96
2023-09-17T19:13:38.567Z,19.94
2023-09-17T19:16:40.663Z,19.87
2023-09-17T19:19:43.202Z,19.77
2023-09-17T19:22:45.369Z,19.71
2023-09-17T19:25:47.517Z,19.68
2023-09-17T19:28:50.221Z,19.70
2023-09-17T19:31:52.565Z,19.73
2023-09-17T19:34:56.645Z,19.74
2023-09-17T19:37:58.803Z,19.77
2023-09-17T19:41:01.523Z,19.80
2023-09-17T19:44:03.753Z,19.83
2023-09-17T19:47:06.728Z,19.86
2023-09-17T19:50:09.234Z,19.87
2023-09-17T19:53:11.303Z,19.89
2023-09-17T19:56:13.213Z,19.86
2023-09-17T19:59:15.888Z,19.81
2023-09-17T20:02:18.225Z,19.77
2023-09-17T20:05:20.452Z,19.75
2023-09-17T20:08:22.446Z,19.80
2023-09-17T20:11:24.407Z,19.78
2023-09-17T20:14:26.709Z,19.77
2023-09-17T20:17:29.801Z,19.81
2023-09-17T20:20:32.308Z,19.85
2023-09-17T20:23:40.002Z,19.80
2023-09-17T20:26:45.568Z,19.83
2023-09-17T20:29:47.696Z,19.87
2023-09-17T20:32:51.650Z,19.84
2023-09-17T20:35:53.902Z,19.79
2023-09-17T20:38:57.731Z,19.78
2023-09-17T20:41:59.708Z,19.74
2023-09-17T20:45:01.668Z,19.71
2023-09-17T20:48:03.965Z,19.70
2023-09-17T20:51:05.925Z,19.69
2023-09-17T20:54:07.859Z,19.68
2023-09-17T20:57:09.711Z,19.62
2023-09-17T21:00:12.291Z,19.61
2023-09-17T21:03:15.730Z,19.57
2023-09-17T21:06:17.775Z,19.58
2023-09-17T21:09:27.522Z,19.55
2023-09-17T21:12:29.886Z,19.52
2023-09-17T21:15:31.859Z,19.51
2023-09-17T21:18:33.815Z,19.47
2023-09-17T21:21:36.144Z,19.47
2023-09-17T21:24:38.950Z,19.42
2023-09-17T21:27:40.957Z,19.40
2023-09-17T21:30:44.973Z,19.37
2023-09-17T21:33:46.814Z,19.29
2023-09-17T21:36:50.670Z,19.34
2023-09-17T21:39:52.568Z,19.37
2023-09-17T21:42:54.546Z,19.40
2023-09-17T21:45:56.464Z,19.42
2023-09-17T21:48:58.431Z,19.38
2023-09-17T21:52:00.364Z,19.38
2023-09-17T21:55:02.234Z,19.37
2023-09-17T21:58:04.255Z,19.35
2023-09-17T22:01:06.193Z,19.39
2023-09-17T22:04:08.209Z,19.38
2023-09-17T22:07:12.961Z,19.41
2023-09-17T22:10:16.521Z,19.35
2023-09-17T22:13:19.697Z,19.34
2023-09-17T22:16:21.655Z,19.36
2023-09-17T22:19:23.530Z,19.37
2023-09-17T22:22:25.602Z,19.40
2023-09-17T22:25:27.551Z,19.42
2023-09-17T22:28:29.409Z,19.38
2023-09-17T22:31:31.372Z,19.34
2023-09-17T22:34:33.359Z,19.40
2023-09-17T22:37:36.809Z,19.43
2023-09-17T22:40:42.648Z,19.41
2023-09-17T22:43:45.283Z,19.39
2023-09-17T22:46:47.185Z,19.39
2023-09-17T22:49:49.235Z,19.40
2023-09-17T22:52:51.060Z,19.43
2023-09-17T22:55:52.983Z,19.41
2023-09-17T22:58:55.167Z,19.37
2023-09-17T23:01:57.359Z,19.30
2023-09-17T23:04:59.364Z,19.23
2023-09-17T23:08:01.711Z,19.16
2023-09-17T23:11:06.213Z,19.13
2023-09-17T23:14:09.648Z,19.12
2023-09-17T23:17:11.954Z,19.07
2023-09-17T23:20:14.232Z,19.02
2023-09-17T23:23:16.563Z,19.09
2023-09-17T23:26:18.656Z,18.99
2023-09-17T23:29:20.825Z,18.84
2023-09-17T23:32:22.837Z,18.77
2023-09-17T23:35:25.379Z,18.75
2023-09-17T23:38:31.457Z,18.67
2023-09-17T23:41:33.611Z,18.69
2023-09-17T23:44:35.632Z,18.63
2023-09-17T23:47:37.697Z,18.57
2023-09-17T23:50:42.042Z,18.45
2023-09-17T23:53:43.940Z,18.41
2023-09-17T23:56:45.999Z,18.37
2023-09-17T23:59:48.037Z,18.30
